PWSweather.com
Personal Weather Stations
Station Observations
KCOBLACK1
Chalet Park, Black Hawk, CO 80422

Chalet ParkBlack Hawk, CO 80422

Lat: 39.8294, Lon: -105.48

Elevation: 9370

Station Type: Vantage Pro2

http://www.oscaranddeb.com/weather

Latest ConditionsUpdated 2:15:00 AM MST Thursday, Feb 23, 2017
Currently Today's Max Today's Min Today's Average
Temperature 21.8°F-5.7°C 23.3°F-4.8°C 21.8°F-5.7°C 22.6°F-5.2°C
Dew Point 14.5°F-9.7°C 17.8°F-7.9°C 14.5°F-9.7°C 16.5°F-8.6°C
Winds 1.0 mph E1.6 kmh E 2.0 mph SE3.2 kmh SE - 0.8 mph 1.3 kmh
Wind Gusts 3.0 mph4.8 kmh 6.0 mph9.7 kmh - -
Humidity 73% 79% 73% 77%
Pressure 29.45 in997.3 mb 29.51 in999.3 mb 29.45 in997.3 mb -
Hour Temp Dew Point Humidity Winds Wind Gusts Pressure Precip Precip Rate Daily Precip Total
02:15 AM 21.8°F-5.7°C 14.5°F-9.7°C 73% 1.0 mph E1.6 kmh E 3.0 mph4.8 kmh 29.45 in997.3 mb 0.00 in0.0 mm 0.00 in0.0 mm 0.00 in0.0 mm
02:10 AM 22.0°F-5.6°C 14.7°F-9.6°C 73% 1.0 mph E1.6 kmh E 2.0 mph3.2 kmh 29.46 in997.6 mb 0.00 in0.0 mm 0.00 in0.0 mm 0.00 in0.0 mm
02:05 AM 22.2°F-5.4°C 15.2°F-9.3°C 74% Calm Calm 2.0 mph3.2 kmh 29.46 in997.6 mb 0.00 in0.0 mm 0.00 in0.0 mm 0.00 in0.0 mm
02:00 AM 22.3°F-5.4°C 15.3°F-9.3°C 74% 1.0 mph E1.6 kmh E 3.0 mph4.8 kmh 29.46 in997.6 mb 0.00 in0.0 mm 0.00 in0.0 mm 0.00 in0.0 mm
01:55 AM 22.4°F-5.3°C 16.0°F-8.9°C 76% Calm Calm 1.0 mph1.6 kmh 29.46 in997.6 mb 0.00 in0.0 mm 0.00 in0.0 mm 0.00 in0.0 mm
01:50 AM 22.5°F-5.3°C 16.1°F-8.8°C 76% Calm Calm 2.0 mph3.2 kmh 29.47 in998.0 mb 0.00 in0.0 mm 0.00 in0.0 mm 0.00 in0.0 mm
01:45 AM 22.6°F-5.2°C 16.5°F-8.6°C 77% Calm Calm 1.0 mph1.6 kmh 29.47 in998.0 mb 0.00 in0.0 mm 0.00 in0.0 mm 0.00 in0.0 mm
01:40 AM 22.6°F-5.2°C 16.8°F-8.4°C 78% Calm Calm 1.0 mph1.6 kmh 29.47 in998.0 mb 0.00 in0.0 mm 0.00 in0.0 mm 0.00 in0.0 mm
01:35 AM 22.6°F-5.2°C 16.8°F-8.4°C 78% 1.0 mph E1.6 kmh E 2.0 mph3.2 kmh 29.47 in998.0 mb 0.00 in0.0 mm 0.00 in0.0 mm 0.00 in0.0 mm
01:30 AM 22.6°F-5.2°C 16.5°F-8.6°C 77% 1.0 mph ESE1.6 kmh ESE 3.0 mph4.8 kmh 29.48 in998.3 mb 0.00 in0.0 mm 0.00 in0.0 mm 0.00 in0.0 mm
01:25 AM 22.6°F-5.2°C 16.2°F-8.8°C 76% 1.0 mph ESE1.6 kmh ESE 4.0 mph6.4 kmh 29.48 in998.3 mb 0.00 in0.0 mm 0.00 in0.0 mm 0.00 in0.0 mm
01:20 AM 22.7°F-5.2°C 16.3°F-8.7°C 76% 1.0 mph ESE1.6 kmh ESE 4.0 mph6.4 kmh 29.48 in998.3 mb 0.00 in0.0 mm 0.00 in0.0 mm 0.00 in0.0 mm
01:15 AM 22.7°F-5.2°C 16.6°F-8.6°C 77% 1.0 mph E1.6 kmh E 5.0 mph8.0 kmh 29.48 in998.3 mb 0.00 in0.0 mm 0.00 in0.0 mm 0.00 in0.0 mm
01:10 AM 22.7°F-5.2°C 16.6°F-8.6°C 77% 1.0 mph SE1.6 kmh SE 3.0 mph4.8 kmh 29.49 in998.6 mb 0.00 in0.0 mm 0.00 in0.0 mm 0.00 in0.0 mm
01:05 AM 22.8°F-5.1°C 16.7°F-8.5°C 77% 2.0 mph SE3.2 kmh SE 4.0 mph6.4 kmh 29.49 in998.6 mb 0.00 in0.0 mm 0.00 in0.0 mm 0.00 in0.0 mm
01:00 AM 22.7°F-5.2°C 16.9°F-8.4°C 78% 1.0 mph SE1.6 kmh SE 3.0 mph4.8 kmh 29.49 in998.6 mb 0.00 in0.0 mm 0.00 in0.0 mm 0.00 in0.0 mm
12:55 AM 22.7°F-5.2°C 16.9°F-8.4°C 78% Calm Calm 2.0 mph3.2 kmh 29.49 in998.6 mb 0.00 in0.0 mm 0.00 in0.0 mm 0.00 in0.0 mm
12:50 AM 22.7°F-5.2°C 16.9°F-8.4°C 78% Calm Calm 1.0 mph1.6 kmh 29.50 in999.0 mb 0.00 in0.0 mm 0.00 in0.0 mm 0.00 in0.0 mm
12:45 AM 22.7°F-5.2°C 16.9°F-8.4°C 78% 1.0 mph SW1.6 kmh SW 2.0 mph3.2 kmh 29.50 in999.0 mb 0.00 in0.0 mm 0.00 in0.0 mm 0.00 in0.0 mm
12:40 AM 22.7°F-5.2°C 16.9°F-8.4°C 78% 1.0 mph SW1.6 kmh SW 1.0 mph1.6 kmh 29.50 in999.0 mb 0.00 in0.0 mm 0.00 in0.0 mm 0.00 in0.0 mm
12:35 AM 22.8°F-5.1°C 17.0°F-8.3°C 78% 1.0 mph SW1.6 kmh SW 2.0 mph3.2 kmh 29.50 in999.0 mb 0.00 in0.0 mm 0.00 in0.0 mm 0.00 in0.0 mm
12:30 AM 22.8°F-5.1°C 16.7°F-8.5°C 77% 1.0 mph SSW1.6 kmh SSW 2.0 mph3.2 kmh 29.50 in999.0 mb 0.00 in0.0 mm 0.00 in0.0 mm 0.00 in0.0 mm
12:25 AM 22.8°F-5.1°C 16.7°F-8.5°C 77% 1.0 mph S1.6 kmh S 3.0 mph4.8 kmh 29.51 in999.3 mb 0.00 in0.0 mm 0.00 in0.0 mm 0.00 in0.0 mm
12:20 AM 22.7°F-5.2°C 16.6°F-8.6°C 77% 1.0 mph SSE1.6 kmh SSE 2.0 mph3.2 kmh 29.51 in999.3 mb 0.00 in0.0 mm 0.00 in0.0 mm 0.00 in0.0 mm
12:15 AM 22.8°F-5.1°C 16.7°F-8.5°C 77% 1.0 mph SSE1.6 kmh SSE 3.0 mph4.8 kmh 29.51 in999.3 mb 0.00 in0.0 mm 0.00 in0.0 mm 0.00 in0.0 mm
12:10 AM 22.9°F-5.1°C 16.8°F-8.4°C 77% 1.0 mph S1.6 kmh S 6.0 mph9.7 kmh 29.51 in999.3 mb 0.00 in0.0 mm 0.00 in0.0 mm 0.00 in0.0 mm
12:05 AM 23.2°F-4.9°C 17.4°F-8.1°C 78% 1.0 mph NE1.6 kmh NE 4.0 mph6.4 kmh 29.51 in999.3 mb 0.00 in0.0 mm 0.00 in0.0 mm 0.00 in0.0 mm
12:00 AM 23.3°F-4.8°C 17.8°F-7.9°C 79% Calm Calm 2.0 mph3.2 kmh 29.51 in999.3 mb 0.00 in0.0 mm 0.00 in0.0 mm 0.00 in0.0 mm